sensor_id;sensor_type;location;lat;lon;timestamp;P1;durP1;ratioP1;P2;durP2;ratioP2
3000;SDS011;1510;51.072;6.678;2024-03-06T00:02:13;1138.27;;;999.90;;
3000;SDS011;1510;51.072;6.678;2024-03-06T00:04:42;1156.90;;;999.90;;
3000;SDS011;1510;51.072;6.678;2024-03-06T00:07:08;1146.87;;;999.90;;
3000;SDS011;1510;51.072;6.678;2024-03-06T00:09:35;1123.87;;;999.90;;
3000;SDS011;1510;51.072;6.678;2024-03-06T00:12:02;1123.37;;;999.90;;
3000;SDS011;1510;51.072;6.678;2024-03-06T00:14:31;1117.43;;;995.40;;
3000;SDS011;1510;51.072;6.678;2024-03-06T00:16:58;1118.13;;;995.50;;
3000;SDS011;1510;51.072;6.678;2024-03-06T00:19:25;1119.50;;;997.60;;
3000;SDS011;1510;51.072;6.678;2024-03-06T00:21:53;1132.00;;;999.90;;
3000;SDS011;1510;51.072;6.678;2024-03-06T00:24:20;1144.43;;;999.90;;
3000;SDS011;1510;51.072;6.678;2024-03-06T00:26:48;1144.03;;;999.90;;
3000;SDS011;1510;51.072;6.678;2024-03-06T00:29:15;1145.27;;;999.90;;
3000;SDS011;1510;51.072;6.678;2024-03-06T00:31:42;1139.93;;;999.90;;
3000;SDS011;1510;51.072;6.678;2024-03-06T00:34:09;1113.43;;;990.23;;
3000;SDS011;1510;51.072;6.678;2024-03-06T00:36:36;1136.80;;;999.90;;
3000;SDS011;1510;51.072;6.678;2024-03-06T00:39:04;1134.10;;;999.90;;
3000;SDS011;1510;51.072;6.678;2024-03-06T00:41:33;1149.53;;;999.90;;
3000;SDS011;1510;51.072;6.678;2024-03-06T00:44:00;1151.70;;;999.90;;
3000;SDS011;1510;51.072;6.678;2024-03-06T00:46:26;1162.77;;;999.90;;
3000;SDS011;1510;51.072;6.678;2024-03-06T00:48:53;1155.83;;;999.90;;
3000;SDS011;1510;51.072;6.678;2024-03-06T00:51:20;1158.77;;;999.90;;
3000;SDS011;1510;51.072;6.678;2024-03-06T00:53:47;1147.37;;;999.90;;
3000;SDS011;1510;51.072;6.678;2024-03-06T00:56:15;1144.43;;;999.90;;
3000;SDS011;1510;51.072;6.678;2024-03-06T00:58:42;1130.50;;;999.90;;
3000;SDS011;1510;51.072;6.678;2024-03-06T01:01:09;1145.17;;;999.90;;
3000;SDS011;1510;51.072;6.678;2024-03-06T01:03:37;1140.13;;;999.90;;
3000;SDS011;1510;51.072;6.678;2024-03-06T01:06:04;1153.53;;;999.90;;
3000;SDS011;1510;51.072;6.678;2024-03-06T01:08:31;1186.40;;;999.90;;
3000;SDS011;1510;51.072;6.678;2024-03-06T01:10:58;1159.13;;;999.90;;
3000;SDS011;1510;51.072;6.678;2024-03-06T01:13:26;1157.73;;;999.90;;
3000;SDS011;1510;51.072;6.678;2024-03-06T01:15:53;1167.40;;;999.90;;
3000;SDS011;1510;51.072;6.678;2024-03-06T01:18:20;1168.97;;;999.90;;
3000;SDS011;1510;51.072;6.678;2024-03-06T01:20:47;1159.30;;;999.90;;
3000;SDS011;1510;51.072;6.678;2024-03-06T01:23:13;1159.53;;;999.90;;
3000;SDS011;1510;51.072;6.678;2024-03-06T01:25:41;1146.20;;;999.90;;
3000;SDS011;1510;51.072;6.678;2024-03-06T01:28:08;1136.07;;;999.90;;
3000;SDS011;1510;51.072;6.678;2024-03-06T01:30:36;1144.50;;;999.90;;
3000;SDS011;1510;51.072;6.678;2024-03-06T01:33:03;1127.00;;;999.90;;
3000;SDS011;1510;51.072;6.678;2024-03-06T01:35:31;1131.50;;;999.90;;
3000;SDS011;1510;51.072;6.678;2024-03-06T01:37:58;1138.67;;;999.90;;
3000;SDS011;1510;51.072;6.678;2024-03-06T01:40:26;1141.07;;;999.90;;
3000;SDS011;1510;51.072;6.678;2024-03-06T01:42:54;1145.23;;;999.90;;
3000;SDS011;1510;51.072;6.678;2024-03-06T01:45:21;1143.93;;;999.90;;
3000;SDS011;1510;51.072;6.678;2024-03-06T01:47:49;1162.43;;;999.90;;
3000;SDS011;1510;51.072;6.678;2024-03-06T01:50:16;1176.33;;;999.90;;
3000;SDS011;1510;51.072;6.678;2024-03-06T01:52:44;1186.80;;;999.90;;
3000;SDS011;1510;51.072;6.678;2024-03-06T01:55:12;1179.27;;;999.90;;
3000;SDS011;1510;51.072;6.678;2024-03-06T01:57:40;1177.23;;;999.90;;
3000;SDS011;1510;51.072;6.678;2024-03-06T02:00:08;1185.30;;;999.90;;
3000;SDS011;1510;51.072;6.678;2024-03-06T02:02:39;1174.07;;;999.90;;
3000;SDS011;1510;51.072;6.678;2024-03-06T02:05:08;1164.10;;;999.90;;
3000;SDS011;1510;51.072;6.678;2024-03-06T02:07:36;1176.10;;;999.90;;
3000;SDS011;1510;51.072;6.678;2024-03-06T02:10:05;1193.03;;;999.90;;
3000;SDS011;1510;51.072;6.678;2024-03-06T02:12:34;1221.50;;;999.90;;
3000;SDS011;1510;51.072;6.678;2024-03-06T02:15:01;1196.13;;;999.90;;
3000;SDS011;1510;51.072;6.678;2024-03-06T02:17:29;1232.37;;;999.90;;
3000;SDS011;1510;51.072;6.678;2024-03-06T02:19:55;1263.20;;;999.90;;
3000;SDS011;1510;51.072;6.678;2024-03-06T02:22:25;1271.90;;;999.90;;
3000;SDS011;1510;51.072;6.678;2024-03-06T02:24:52;1241.87;;;999.90;;
3000;SDS011;1510;51.072;6.678;2024-03-06T02:27:18;1262.50;;;999.90;;
3000;SDS011;1510;51.072;6.678;2024-03-06T02:29:45;1269.03;;;999.90;;
3000;SDS011;1510;51.072;6.678;2024-03-06T02:32:12;1199.83;;;999.90;;
3000;SDS011;1510;51.072;6.678;2024-03-06T02:34:39;1197.47;;;999.90;;
3000;SDS011;1510;51.072;6.678;2024-03-06T02:37:06;1248.37;;;999.90;;
3000;SDS011;1510;51.072;6.678;2024-03-06T02:39:34;1206.60;;;999.90;;
3000;SDS011;1510;51.072;6.678;2024-03-06T02:42:01;1190.07;;;999.90;;
3000;SDS011;1510;51.072;6.678;2024-03-06T02:44:29;1202.27;;;999.90;;
3000;SDS011;1510;51.072;6.678;2024-03-06T02:46:56;1199.00;;;999.90;;
3000;SDS011;1510;51.072;6.678;2024-03-06T02:49:23;1188.67;;;999.90;;
3000;SDS011;1510;51.072;6.678;2024-03-06T02:51:49;1183.73;;;999.90;;
3000;SDS011;1510;51.072;6.678;2024-03-06T02:54:17;1190.57;;;999.90;;
3000;SDS011;1510;51.072;6.678;2024-03-06T02:56:45;1207.73;;;999.90;;
3000;SDS011;1510;51.072;6.678;2024-03-06T02:59:12;1194.97;;;999.90;;
3000;SDS011;1510;51.072;6.678;2024-03-06T03:01:39;1210.50;;;999.90;;
3000;SDS011;1510;51.072;6.678;2024-03-06T03:04:06;1195.97;;;999.90;;
3000;SDS011;1510;51.072;6.678;2024-03-06T03:06:32;1205.90;;;999.90;;
3000;SDS011;1510;51.072;6.678;2024-03-06T03:08:59;1200.73;;;999.90;;
3000;SDS011;1510;51.072;6.678;2024-03-06T03:11:26;1174.90;;;999.90;;
3000;SDS011;1510;51.072;6.678;2024-03-06T03:13:54;1184.97;;;999.90;;
3000;SDS011;1510;51.072;6.678;2024-03-06T03:16:22;1196.63;;;999.90;;
3000;SDS011;1510;51.072;6.678;2024-03-06T03:18:49;1187.10;;;999.90;;
3000;SDS011;1510;51.072;6.678;2024-03-06T03:21:15;1178.63;;;999.90;;
3000;SDS011;1510;51.072;6.678;2024-03-06T03:23:42;1189.67;;;999.90;;
3000;SDS011;1510;51.072;6.678;2024-03-06T03:26:09;1189.10;;;999.90;;
3000;SDS011;1510;51.072;6.678;2024-03-06T03:28:37;1197.90;;;999.90;;
3000;SDS011;1510;51.072;6.678;2024-03-06T03:31:06;1226.27;;;999.90;;
3000;SDS011;1510;51.072;6.678;2024-03-06T03:33:34;1283.97;;;999.90;;
3000;SDS011;1510;51.072;6.678;2024-03-06T03:36:03;1234.30;;;999.90;;
3000;SDS011;1510;51.072;6.678;2024-03-06T03:38:31;1256.03;;;999.90;;
3000;SDS011;1510;51.072;6.678;2024-03-06T03:41:00;1191.27;;;999.90;;
3000;SDS011;1510;51.072;6.678;2024-03-06T03:43:29;1170.73;;;999.90;;
3000;SDS011;1510;51.072;6.678;2024-03-06T03:45:55;1185.03;;;999.90;;
3000;SDS011;1510;51.072;6.678;2024-03-06T03:48:23;1181.37;;;999.90;;
3000;SDS011;1510;51.072;6.678;2024-03-06T03:50:50;1174.90;;;999.90;;
3000;SDS011;1510;51.072;6.678;2024-03-06T03:53:17;1180.80;;;999.90;;
3000;SDS011;1510;51.072;6.678;2024-03-06T03:55:44;1174.00;;;999.90;;
3000;SDS011;1510;51.072;6.678;2024-03-06T03:58:10;1176.70;;;999.90;;
3000;SDS011;1510;51.072;6.678;2024-03-06T04:00:37;1175.83;;;999.90;;
3000;SDS011;1510;51.072;6.678;2024-03-06T04:03:04;1181.93;;;999.90;;
3000;SDS011;1510;51.072;6.678;2024-03-06T04:05:33;1174.93;;;999.90;;
3000;SDS011;1510;51.072;6.678;2024-03-06T04:08:00;1192.80;;;999.90;;
3000;SDS011;1510;51.072;6.678;2024-03-06T04:10:27;1189.80;;;999.90;;
3000;SDS011;1510;51.072;6.678;2024-03-06T04:12:54;1189.13;;;999.90;;
3000;SDS011;1510;51.072;6.678;2024-03-06T04:15:21;1191.47;;;999.90;;
3000;SDS011;1510;51.072;6.678;2024-03-06T04:17:48;1184.53;;;999.90;;
3000;SDS011;1510;51.072;6.678;2024-03-06T04:20:14;1177.30;;;999.90;;
3000;SDS011;1510;51.072;6.678;2024-03-06T04:22:42;1200.13;;;999.90;;
3000;SDS011;1510;51.072;6.678;2024-03-06T04:25:11;1189.33;;;999.90;;
3000;SDS011;1510;51.072;6.678;2024-03-06T04:27:38;1197.40;;;999.90;;
3000;SDS011;1510;51.072;6.678;2024-03-06T04:30:05;1182.70;;;999.90;;
3000;SDS011;1510;51.072;6.678;2024-03-06T04:32:33;1173.47;;;999.90;;
3000;SDS011;1510;51.072;6.678;2024-03-06T04:34:59;1182.73;;;999.90;;
3000;SDS011;1510;51.072;6.678;2024-03-06T04:37:26;1164.93;;;999.90;;
3000;SDS011;1510;51.072;6.678;2024-03-06T04:39:56;1190.30;;;999.90;;
3000;SDS011;1510;51.072;6.678;2024-03-06T04:42:23;1178.47;;;999.90;;
3000;SDS011;1510;51.072;6.678;2024-03-06T04:44:49;1171.30;;;999.90;;
3000;SDS011;1510;51.072;6.678;2024-03-06T04:47:16;1147.77;;;999.90;;
3000;SDS011;1510;51.072;6.678;2024-03-06T04:49:44;1146.53;;;999.90;;
3000;SDS011;1510;51.072;6.678;2024-03-06T04:52:11;1149.47;;;999.90;;
3000;SDS011;1510;51.072;6.678;2024-03-06T04:54:38;1163.40;;;999.90;;
3000;SDS011;1510;51.072;6.678;2024-03-06T04:57:06;1148.63;;;999.90;;
3000;SDS011;1510;51.072;6.678;2024-03-06T04:59:33;1141.93;;;999.90;;
3000;SDS011;1510;51.072;6.678;2024-03-06T05:02:00;1140.50;;;999.90;;
3000;SDS011;1510;51.072;6.678;2024-03-06T05:04:28;1128.50;;;999.90;;
3000;SDS011;1510;51.072;6.678;2024-03-06T05:06:55;1145.60;;;999.90;;
3000;SDS011;1510;51.072;6.678;2024-03-06T05:09:22;1145.00;;;999.90;;
3000;SDS011;1510;51.072;6.678;2024-03-06T05:11:48;1155.90;;;999.90;;
3000;SDS011;1510;51.072;6.678;2024-03-06T05:14:17;1118.90;;;999.90;;
3000;SDS011;1510;51.072;6.678;2024-03-06T05:16:44;1121.73;;;999.90;;
3000;SDS011;1510;51.072;6.678;2024-03-06T05:19:11;1120.37;;;999.90;;
3000;SDS011;1510;51.072;6.678;2024-03-06T05:21:37;1124.10;;;999.90;;
3000;SDS011;1510;51.072;6.678;2024-03-06T05:24:04;1111.40;;;996.30;;
3000;SDS011;1510;51.072;6.678;2024-03-06T05:26:31;1100.70;;;988.27;;
3000;SDS011;1510;51.072;6.678;2024-03-06T05:28:58;1126.27;;;999.90;;
3000;SDS011;1510;51.072;6.678;2024-03-06T05:31:26;1132.80;;;999.90;;
3000;SDS011;1510;51.072;6.678;2024-03-06T05:33:53;1151.37;;;999.90;;
3000;SDS011;1510;51.072;6.678;2024-03-06T05:36:19;1126.83;;;999.90;;
3000;SDS011;1510;51.072;6.678;2024-03-06T05:38:46;1117.63;;;999.90;;
3000;SDS011;1510;51.072;6.678;2024-03-06T05:41:14;1140.50;;;999.90;;
3000;SDS011;1510;51.072;6.678;2024-03-06T05:43:43;1105.87;;;992.87;;
3000;SDS011;1510;51.072;6.678;2024-03-06T05:46:09;1102.70;;;987.67;;
3000;SDS011;1510;51.072;6.678;2024-03-06T05:48:38;1108.83;;;993.87;;
3000;SDS011;1510;51.072;6.678;2024-03-06T05:51:05;1123.73;;;999.90;;
3000;SDS011;1510;51.072;6.678;2024-03-06T05:53:35;1116.90;;;999.90;;
3000;SDS011;1510;51.072;6.678;2024-03-06T05:56:03;1146.20;;;999.90;;
3000;SDS011;1510;51.072;6.678;2024-03-06T05:58:31;1147.20;;;999.90;;
3000;SDS011;1510;51.072;6.678;2024-03-06T06:00:59;1158.90;;;999.90;;
3000;SDS011;1510;51.072;6.678;2024-03-06T06:03:26;1160.43;;;999.90;;
3000;SDS011;1510;51.072;6.678;2024-03-06T06:05:54;1151.73;;;999.90;;
3000;SDS011;1510;51.072;6.678;2024-03-06T06:08:21;1160.50;;;999.90;;
3000;SDS011;1510;51.072;6.678;2024-03-06T06:10:49;1150.37;;;999.90;;
3000;SDS011;1510;51.072;6.678;2024-03-06T06:13:17;1161.03;;;999.90;;
3000;SDS011;1510;51.072;6.678;2024-03-06T06:15:44;1159.13;;;999.90;;
3000;SDS011;1510;51.072;6.678;2024-03-06T06:18:11;1159.83;;;999.90;;
3000;SDS011;1510;51.072;6.678;2024-03-06T06:20:38;1158.90;;;999.90;;
3000;SDS011;1510;51.072;6.678;2024-03-06T06:23:08;1148.73;;;999.90;;
3000;SDS011;1510;51.072;6.678;2024-03-06T06:25:34;1142.93;;;999.90;;
3000;SDS011;1510;51.072;6.678;2024-03-06T06:28:01;1160.07;;;999.90;;
3000;SDS011;1510;51.072;6.678;2024-03-06T06:30:28;1168.00;;;999.90;;
3000;SDS011;1510;51.072;6.678;2024-03-06T06:32:55;1143.53;;;999.90;;
3000;SDS011;1510;51.072;6.678;2024-03-06T06:35:22;1143.93;;;999.90;;
3000;SDS011;1510;51.072;6.678;2024-03-06T06:37:50;1136.20;;;999.90;;
3000;SDS011;1510;51.072;6.678;2024-03-06T06:40:18;1140.00;;;999.90;;
3000;SDS011;1510;51.072;6.678;2024-03-06T06:42:45;1129.07;;;999.90;;
3000;SDS011;1510;51.072;6.678;2024-03-06T06:45:14;1140.03;;;999.90;;
3000;SDS011;1510;51.072;6.678;2024-03-06T06:47:41;1142.27;;;999.90;;
3000;SDS011;1510;51.072;6.678;2024-03-06T06:50:08;1161.83;;;999.90;;
3000;SDS011;1510;51.072;6.678;2024-03-06T06:52:36;1167.17;;;999.90;;
3000;SDS011;1510;51.072;6.678;2024-03-06T06:55:04;1167.83;;;999.90;;
3000;SDS011;1510;51.072;6.678;2024-03-06T06:57:32;1168.27;;;999.90;;
3000;SDS011;1510;51.072;6.678;2024-03-06T06:59:59;1162.60;;;999.90;;
3000;SDS011;1510;51.072;6.678;2024-03-06T07:02:28;1155.13;;;999.90;;
3000;SDS011;1510;51.072;6.678;2024-03-06T07:04:55;1157.77;;;999.90;;
3000;SDS011;1510;51.072;6.678;2024-03-06T07:07:22;1167.00;;;999.90;;
3000;SDS011;1510;51.072;6.678;2024-03-06T07:09:48;1159.20;;;999.90;;
3000;SDS011;1510;51.072;6.678;2024-03-06T07:12:15;1171.87;;;999.90;;
3000;SDS011;1510;51.072;6.678;2024-03-06T07:14:43;1155.83;;;999.90;;
3000;SDS011;1510;51.072;6.678;2024-03-06T07:17:10;1158.27;;;999.90;;
3000;SDS011;1510;51.072;6.678;2024-03-06T07:19:37;1139.47;;;999.90;;
3000;SDS011;1510;51.072;6.678;2024-03-06T07:22:04;1138.30;;;999.90;;
3000;SDS011;1510;51.072;6.678;2024-03-06T07:24:31;1125.13;;;999.90;;
3000;SDS011;1510;51.072;6.678;2024-03-06T07:26:58;1127.30;;;999.90;;
3000;SDS011;1510;51.072;6.678;2024-03-06T07:29:26;1125.47;;;999.90;;
3000;SDS011;1510;51.072;6.678;2024-03-06T07:31:54;1111.23;;;997.23;;
3000;SDS011;1510;51.072;6.678;2024-03-06T07:34:22;1144.03;;;999.90;;
3000;SDS011;1510;51.072;6.678;2024-03-06T07:36:49;1131.33;;;999.90;;
3000;SDS011;1510;51.072;6.678;2024-03-06T07:39:16;1136.00;;;999.90;;
3000;SDS011;1510;51.072;6.678;2024-03-06T07:41:43;1108.37;;;996.83;;
3000;SDS011;1510;51.072;6.678;2024-03-06T07:44:10;1108.50;;;995.80;;
3000;SDS011;1510;51.072;6.678;2024-03-06T07:46:36;1090.40;;;978.30;;
3000;SDS011;1510;51.072;6.678;2024-03-06T07:49:05;1097.30;;;985.50;;
3000;SDS011;1510;51.072;6.678;2024-03-06T07:51:32;1103.43;;;988.93;;
3000;SDS011;1510;51.072;6.678;2024-03-06T07:53:59;1108.73;;;993.33;;
3000;SDS011;1510;51.072;6.678;2024-03-06T07:56:26;1112.93;;;998.37;;
3000;SDS011;1510;51.072;6.678;2024-03-06T07:58:53;1107.50;;;990.43;;
3000;SDS011;1510;51.072;6.678;2024-03-06T08:01:20;1099.47;;;983.33;;
3000;SDS011;1510;51.072;6.678;2024-03-06T08:03:47;1112.00;;;999.10;;
3000;SDS011;1510;51.072;6.678;2024-03-06T08:06:16;1109.87;;;997.07;;
3000;SDS011;1510;51.072;6.678;2024-03-06T08:08:42;1109.13;;;997.50;;
3000;SDS011;1510;51.072;6.678;2024-03-06T08:11:10;1104.27;;;995.27;;
3000;SDS011;1510;51.072;6.678;2024-03-06T08:13:37;1109.30;;;999.60;;
3000;SDS011;1510;51.072;6.678;2024-03-06T08:16:04;1102.10;;;992.63;;
3000;SDS011;1510;51.072;6.678;2024-03-06T08:18:32;1111.13;;;999.90;;
3000;SDS011;1510;51.072;6.678;2024-03-06T08:20:59;1118.53;;;999.90;;
3000;SDS011;1510;51.072;6.678;2024-03-06T08:23:28;1102.67;;;995.43;;
3000;SDS011;1510;51.072;6.678;2024-03-06T08:25:55;1110.40;;;999.90;;
3000;SDS011;1510;51.072;6.678;2024-03-06T08:28:22;1115.60;;;999.90;;
3000;SDS011;1510;51.072;6.678;2024-03-06T08:30:49;1110.37;;;999.90;;
3000;SDS011;1510;51.072;6.678;2024-03-06T08:33:17;1096.83;;;998.00;;
3000;SDS011;1510;51.072;6.678;2024-03-06T08:35:46;1102.50;;;999.90;;
3000;SDS011;1510;51.072;6.678;2024-03-06T08:38:12;1084.17;;;990.83;;
3000;SDS011;1510;51.072;6.678;2024-03-06T08:40:41;1049.67;;;961.50;;
3000;SDS011;1510;51.072;6.678;2024-03-06T08:43:10;1055.30;;;966.67;;
3000;SDS011;1510;51.072;6.678;2024-03-06T08:45:37;999.03;;;915.03;;
3000;SDS011;1510;51.072;6.678;2024-03-06T08:48:04;961.13;;;881.13;;
3000;SDS011;1510;51.072;6.678;2024-03-06T08:50:31;868.73;;;800.07;;
3000;SDS011;1510;51.072;6.678;2024-03-06T08:52:58;844.47;;;778.03;;
3000;SDS011;1510;51.072;6.678;2024-03-06T08:55:27;828.93;;;770.57;;
3000;SDS011;1510;51.072;6.678;2024-03-06T08:57:55;829.63;;;771.03;;
3000;SDS011;1510;51.072;6.678;2024-03-06T09:00:22;813.40;;;761.00;;
3000;SDS011;1510;51.072;6.678;2024-03-06T09:02:51;801.97;;;753.73;;
3000;SDS011;1510;51.072;6.678;2024-03-06T09:05:18;774.57;;;731.30;;
3000;SDS011;1510;51.072;6.678;2024-03-06T09:07:47;688.63;;;656.93;;
3000;SDS011;1510;51.072;6.678;2024-03-06T09:10:13;368.45;;;354.90;;
3000;SDS011;1510;51.072;6.678;2024-03-06T09:12:40;101.40;;;96.07;;
3000;SDS011;1510;51.072;6.678;2024-03-06T09:15:08;67.00;;;62.97;;
3000;SDS011;1510;51.072;6.678;2024-03-06T09:17:36;63.10;;;59.37;;
3000;SDS011;1510;51.072;6.678;2024-03-06T09:20:04;51.83;;;48.03;;
3000;SDS011;1510;51.072;6.678;2024-03-06T09:22:35;32.43;;;29.63;;
3000;SDS011;1510;51.072;6.678;2024-03-06T09:25:02;25.00;;;16.73;;
3000;SDS011;1510;51.072;6.678;2024-03-06T09:27:30;24.83;;;16.33;;
3000;SDS011;1510;51.072;6.678;2024-03-06T09:29:56;19.40;;;16.13;;
3000;SDS011;1510;51.072;6.678;2024-03-06T09:32:25;23.03;;;14.90;;
3000;SDS011;1510;51.072;6.678;2024-03-06T09:34:52;28.17;;;17.73;;
3000;SDS011;1510;51.072;6.678;2024-03-06T09:37:19;29.83;;;20.10;;
3000;SDS011;1510;51.072;6.678;2024-03-06T09:39:46;27.03;;;17.73;;
3000;SDS011;1510;51.072;6.678;2024-03-06T09:42:13;23.87;;;16.53;;
3000;SDS011;1510;51.072;6.678;2024-03-06T09:44:40;26.63;;;18.47;;
3000;SDS011;1510;51.072;6.678;2024-03-06T09:47:08;25.87;;;17.33;;
3000;SDS011;1510;51.072;6.678;2024-03-06T09:49:40;27.47;;;20.13;;
3000;SDS011;1510;51.072;6.678;2024-03-06T09:52:08;31.50;;;20.27;;
3000;SDS011;1510;51.072;6.678;2024-03-06T09:54:35;31.17;;;19.43;;
3000;SDS011;1510;51.072;6.678;2024-03-06T09:57:04;30.07;;;18.90;;
3000;SDS011;1510;51.072;6.678;2024-03-06T09:59:30;31.33;;;19.20;;
3000;SDS011;1510;51.072;6.678;2024-03-06T10:01:57;30.90;;;19.50;;
3000;SDS011;1510;51.072;6.678;2024-03-06T10:04:27;26.87;;;18.80;;
3000;SDS011;1510;51.072;6.678;2024-03-06T10:06:57;35.10;;;19.90;;
3000;SDS011;1510;51.072;6.678;2024-03-06T10:09:24;30.33;;;19.33;;
3000;SDS011;1510;51.072;6.678;2024-03-06T10:11:52;32.33;;;20.20;;
3000;SDS011;1510;51.072;6.678;2024-03-06T10:14:21;27.43;;;18.20;;
3000;SDS011;1510;51.072;6.678;2024-03-06T10:16:52;29.73;;;20.37;;
3000;SDS011;1510;51.072;6.678;2024-03-06T10:19:21;31.43;;;19.20;;
3000;SDS011;1510;51.072;6.678;2024-03-06T10:21:49;29.20;;;18.77;;
3000;SDS011;1510;51.072;6.678;2024-03-06T10:24:19;27.83;;;18.77;;
3000;SDS011;1510;51.072;6.678;2024-03-06T10:26:46;26.63;;;18.40;;
3000;SDS011;1510;51.072;6.678;2024-03-06T10:29:15;26.20;;;18.17;;
3000;SDS011;1510;51.072;6.678;2024-03-06T10:31:47;29.27;;;19.80;;
3000;SDS011;1510;51.072;6.678;2024-03-06T10:34:18;26.97;;;19.40;;
3000;SDS011;1510;51.072;6.678;2024-03-06T10:36:45;31.37;;;22.23;;
3000;SDS011;1510;51.072;6.678;2024-03-06T10:39:14;31.90;;;22.67;;
3000;SDS011;1510;51.072;6.678;2024-03-06T10:41:46;27.47;;;19.87;;
3000;SDS011;1510;51.072;6.678;2024-03-06T10:44:16;38.63;;;26.33;;
3000;SDS011;1510;51.072;6.678;2024-03-06T10:46:47;36.47;;;24.00;;
3000;SDS011;1510;51.072;6.678;2024-03-06T10:49:25;31.40;;;20.10;;
3000;SDS011;1510;51.072;6.678;2024-03-06T10:51:52;28.97;;;20.97;;
3000;SDS011;1510;51.072;6.678;2024-03-06T10:54:23;39.53;;;27.10;;
3000;SDS011;1510;51.072;6.678;2024-03-06T10:56:54;42.13;;;29.20;;
3000;SDS011;1510;51.072;6.678;2024-03-06T10:59:21;42.10;;;29.40;;
3000;SDS011;1510;51.072;6.678;2024-03-06T11:01:53;39.37;;;26.30;;
3000;SDS011;1510;51.072;6.678;2024-03-06T11:04:20;41.03;;;25.50;;
3000;SDS011;1510;51.072;6.678;2024-03-06T11:06:48;39.50;;;27.00;;
3000;SDS011;1510;51.072;6.678;2024-03-06T11:09:15;37.33;;;28.97;;
3000;SDS011;1510;51.072;6.678;2024-03-06T11:11:49;40.93;;;30.00;;
3000;SDS011;1510;51.072;6.678;2024-03-06T11:14:19;41.97;;;30.73;;
3000;SDS011;1510;51.072;6.678;2024-03-06T11:17:01;45.20;;;32.10;;
3000;SDS011;1510;51.072;6.678;2024-03-06T11:19:29;45.00;;;32.77;;
3000;SDS011;1510;51.072;6.678;2024-03-06T11:21:56;45.83;;;33.37;;
3000;SDS011;1510;51.072;6.678;2024-03-06T11:24:31;49.27;;;33.00;;
3000;SDS011;1510;51.072;6.678;2024-03-06T11:26:59;40.60;;;30.90;;
3000;SDS011;1510;51.072;6.678;2024-03-06T11:29:28;35.07;;;26.30;;
3000;SDS011;1510;51.072;6.678;2024-03-06T11:32:03;39.37;;;28.30;;
3000;SDS011;1510;51.072;6.678;2024-03-06T11:34:33;36.07;;;25.27;;
3000;SDS011;1510;51.072;6.678;2024-03-06T11:37:02;45.00;;;29.90;;
3000;SDS011;1510;51.072;6.678;2024-03-06T11:39:32;46.47;;;31.03;;
3000;SDS011;1510;51.072;6.678;2024-03-06T11:42:02;42.70;;;30.37;;
3000;SDS011;1510;51.072;6.678;2024-03-06T11:44:31;42.67;;;28.77;;
3000;SDS011;1510;51.072;6.678;2024-03-06T11:46:58;38.27;;;26.83;;
3000;SDS011;1510;51.072;6.678;2024-03-06T11:49:26;41.60;;;28.03;;
3000;SDS011;1510;51.072;6.678;2024-03-06T11:51:57;41.60;;;28.33;;
3000;SDS011;1510;51.072;6.678;2024-03-06T11:54:25;41.07;;;29.13;;
3000;SDS011;1510;51.072;6.678;2024-03-06T11:56:53;38.07;;;27.70;;
3000;SDS011;1510;51.072;6.678;2024-03-06T11:59:21;37.20;;;27.77;;
3000;SDS011;1510;51.072;6.678;2024-03-06T12:01:51;38.80;;;27.50;;
3000;SDS011;1510;51.072;6.678;2024-03-06T12:04:18;38.07;;;25.00;;
3000;SDS011;1510;51.072;6.678;2024-03-06T12:06:46;42.10;;;32.00;;
3000;SDS011;1510;51.072;6.678;2024-03-06T12:09:14;41.77;;;30.13;;
3000;SDS011;1510;51.072;6.678;2024-03-06T12:11:41;39.13;;;27.37;;
3000;SDS011;1510;51.072;6.678;2024-03-06T12:14:12;38.57;;;23.50;;
3000;SDS011;1510;51.072;6.678;2024-03-06T12:16:41;40.90;;;27.90;;
3000;SDS011;1510;51.072;6.678;2024-03-06T12:19:10;39.03;;;27.13;;
3000;SDS011;1510;51.072;6.678;2024-03-06T12:21:37;36.17;;;24.20;;
3000;SDS011;1510;51.072;6.678;2024-03-06T12:24:06;29.30;;;21.67;;
3000;SDS011;1510;51.072;6.678;2024-03-06T12:26:34;34.37;;;24.30;;
3000;SDS011;1510;51.072;6.678;2024-03-06T12:29:05;32.30;;;21.73;;
3000;SDS011;1510;51.072;6.678;2024-03-06T12:31:34;32.67;;;23.97;;
3000;SDS011;1510;51.072;6.678;2024-03-06T12:34:02;29.33;;;20.83;;
3000;SDS011;1510;51.072;6.678;2024-03-06T12:36:31;31.67;;;21.37;;
3000;SDS011;1510;51.072;6.678;2024-03-06T12:39:00;31.97;;;23.07;;
3000;SDS011;1510;51.072;6.678;2024-03-06T12:41:28;33.53;;;23.50;;
3000;SDS011;1510;51.072;6.678;2024-03-06T12:43:55;34.50;;;25.40;;
3000;SDS011;1510;51.072;6.678;2024-03-06T12:46:23;32.37;;;22.80;;
3000;SDS011;1510;51.072;6.678;2024-03-06T12:48:51;38.97;;;26.00;;
3000;SDS011;1510;51.072;6.678;2024-03-06T12:51:18;29.87;;;20.40;;
3000;SDS011;1510;51.072;6.678;2024-03-06T12:53:46;27.40;;;18.70;;
3000;SDS011;1510;51.072;6.678;2024-03-06T12:56:13;27.87;;;19.07;;
3000;SDS011;1510;51.072;6.678;2024-03-06T12:58:40;22.40;;;16.23;;
3000;SDS011;1510;51.072;6.678;2024-03-06T13:01:07;18.50;;;14.20;;
3000;SDS011;1510;51.072;6.678;2024-03-06T13:03:33;17.07;;;11.20;;
3000;SDS011;1510;51.072;6.678;2024-03-06T13:06:00;14.90;;;9.90;;
3000;SDS011;1510;51.072;6.678;2024-03-06T13:08:28;20.47;;;14.30;;
3000;SDS011;1510;51.072;6.678;2024-03-06T13:10:56;26.90;;;18.07;;
3000;SDS011;1510;51.072;6.678;2024-03-06T13:13:23;27.37;;;19.50;;
3000;SDS011;1510;51.072;6.678;2024-03-06T13:15:50;25.63;;;18.60;;
3000;SDS011;1510;51.072;6.678;2024-03-06T13:18:17;17.87;;;13.57;;
3000;SDS011;1510;51.072;6.678;2024-03-06T13:20:44;22.80;;;14.80;;
3000;SDS011;1510;51.072;6.678;2024-03-06T13:23:11;21.30;;;14.00;;
3000;SDS011;1510;51.072;6.678;2024-03-06T13:25:38;22.40;;;15.60;;
3000;SDS011;1510;51.072;6.678;2024-03-06T13:28:07;30.10;;;20.85;;
3000;SDS011;1510;51.072;6.678;2024-03-06T13:30:34;24.33;;;18.20;;
3000;SDS011;1510;51.072;6.678;2024-03-06T13:33:03;24.27;;;16.70;;
3000;SDS011;1510;51.072;6.678;2024-03-06T13:35:30;25.27;;;19.23;;
3000;SDS011;1510;51.072;6.678;2024-03-06T13:37:57;27.48;;;20.15;;
3000;SDS011;1510;51.072;6.678;2024-03-06T13:40:24;26.83;;;17.63;;
3000;SDS011;1510;51.072;6.678;2024-03-06T13:42:52;23.63;;;17.37;;
3000;SDS011;1510;51.072;6.678;2024-03-06T13:45:20;22.00;;;14.80;;
3000;SDS011;1510;51.072;6.678;2024-03-06T13:47:47;23.20;;;15.23;;
3000;SDS011;1510;51.072;6.678;2024-03-06T13:50:15;25.47;;;17.27;;
3000;SDS011;1510;51.072;6.678;2024-03-06T13:52:42;26.10;;;18.53;;
3000;SDS011;1510;51.072;6.678;2024-03-06T13:55:10;28.77;;;17.90;;
3000;SDS011;1510;51.072;6.678;2024-03-06T13:57:37;31.00;;;18.97;;
3000;SDS011;1510;51.072;6.678;2024-03-06T14:00:06;23.87;;;16.70;;
3000;SDS011;1510;51.072;6.678;2024-03-06T14:02:38;27.80;;;18.63;;
3000;SDS011;1510;51.072;6.678;2024-03-06T14:05:06;29.40;;;19.07;;
3000;SDS011;1510;51.072;6.678;2024-03-06T14:07:33;23.37;;;17.17;;
3000;SDS011;1510;51.072;6.678;2024-03-06T14:10:00;25.53;;;18.73;;
3000;SDS011;1510;51.072;6.678;2024-03-06T14:12:27;28.80;;;17.70;;
3000;SDS011;1510;51.072;6.678;2024-03-06T14:14:53;28.13;;;18.13;;
3000;SDS011;1510;51.072;6.678;2024-03-06T14:17:20;29.23;;;18.23;;
3000;SDS011;1510;51.072;6.678;2024-03-06T14:19:48;26.90;;;16.40;;
3000;SDS011;1510;51.072;6.678;2024-03-06T14:22:15;24.80;;;16.10;;
3000;SDS011;1510;51.072;6.678;2024-03-06T14:24:42;27.00;;;16.50;;
3000;SDS011;1510;51.072;6.678;2024-03-06T14:27:10;25.30;;;15.40;;